Flight Track Log - Related Links

Times and Time Zones

All times are in EDT time to prevent confusion due to time zone crossing. See the AAL1459 flight status page for this flight to view local times or setup timezone preferences in your user account.

Time Position Orientation Groundspeed Altitude Reporting Facility
EDT Latitude Longitude Course Direction KTS MPH feet Rate Location/Type
Sun 02:20:00 PM 42.5373 -70.8020 340° North  Level FlightAware Approximate
Sun 02:20:37 PM 42.3970 -70.8090 340° North 257 296 5,100  Level FlightAware ADS-B
Sun 02:20:52 PM 42.4090 -70.7940 43° Northeast 265 305 5,600 2,933 Climbing FlightAware ADS-B
Sun 02:21:22 PM 42.4440 -70.7690 28° Northeast 267 307 7,300 3,300 Climbing FlightAware ADS-B
Sun 02:21:32 PM 42.4570 -70.7680 North 274 315 7,800 2,618 Climbing FlightAware ADS-B
Sun 02:22:17 PM 42.5130 -70.8010 337° Northwest 292 336 9,700 2,100 Climbing FlightAware ADS-B
Sun 02:22:32 PM 42.5260 -70.8220 310° West 315 362 9,900 1,309 Climbing FlightAware ADS-B
Sun 02:23:12 PM 42.5630 -70.8880 307° West 350 403 10,900 2,329 Climbing FlightAware ADS-B
Sun 02:23:57 PM 42.6090 -70.9700 307° West 354 407 13,200 2,894 Climbing FlightAware ADS-B
Sun 02:24:37 PM 42.6500 -71.0410 308° West 364 419 15,000 2,753 Climbing FlightAware ADS-B
Sun 02:25:22 PM 42.6950 -71.1230 307° West 370 426 17,100 2,965 Climbing FlightAware ADS-B
Sun 02:26:02 PM 42.7370 -71.1980 307° West 364 419 19,200 3,106 Climbing FlightAware ADS-B
Sun 02:26:47 PM 42.7770 -71.2810 303° West 353 406 21,500 2,612 Climbing FlightAware ADS-B
Sun 02:27:27 PM 42.7910 -71.3720 282° West 367 422 22,900 2,025 Climbing FlightAware ADS-B
Sun 02:28:07 PM 42.7990 -71.4630 277° West 372 428 24,200 1,835 Climbing FlightAware ADS-B
Sun 02:28:52 PM 42.8090 -71.5680 277° West 383 441 25,500 1,835 Climbing FlightAware ADS-B
Sun 02:29:32 PM 42.8190 -71.6630 278° West 387 445 26,800 1,725 Climbing FlightAware ADS-B
Sun 02:30:12 PM 42.8270 -71.7590 277° West 395 455 27,800 1,482 Climbing FlightAware ADS-B
Sun 02:30:57 PM 42.8380 -71.8730 278° West 403 464 28,900 1,624 Climbing FlightAware ADS-B
Sun 02:31:37 PM 42.8480 -71.9740 278° West 404 465 30,100 1,624 Climbing FlightAware ADS-B
Sun 02:32:22 PM 42.8580 -72.0870 277° West 404 465 31,200 1,553 Climbing FlightAware ADS-B
Sun 02:33:02 PM 42.8670 -72.1900 277° West 404 465 32,300 1,412 Climbing FlightAware ADS-B
Sun 02:33:47 PM 42.8770 -72.3000 277° West 404 465 33,200 1,200 Climbing FlightAware ADS-B
Sun 02:34:27 PM 42.8870 -72.4030 278° West 406 467 34,000 1,350 Climbing FlightAware ADS-B
Sun 02:35:07 PM 42.8960 -72.5030 277° West 402 463 35,000 1,275 Climbing FlightAware ADS-B
Sun 02:35:47 PM 42.9040 -72.6030 276° West 400 460 35,700 1,200 Climbing FlightAware ADS-B
Sun 02:36:27 PM 42.9130 -72.7040 277° West 397 457 36,600 1,333 Climbing FlightAware ADS-B
Sun 02:37:17 PM 42.9230 -72.8250 276° West 387 445 37,700 933 Climbing FlightAware ADS-B
Sun 02:37:57 PM 42.9320 -72.9250 277° West 390 449 38,000 257 Climbing FlightAware ADS-B
Sun 02:38:27 PM 42.9380 -72.9990 276° West 388 447 38,000  Level FlightAware ADS-B
Sun 02:39:07 PM 42.9450 -73.0850 276° West 388 447 38,000  Level FlightAware ADS-B
Sun 02:39:52 PM 42.9540 -73.1940 276° West 387 445 38,000  Level FlightAware ADS-B
Sun 02:40:32 PM 42.9600 -73.2760 276° West 387 445 38,000  Level FlightAware ADS-B
Sun 02:41:12 PM 42.9710 -73.3960 277° West 388 447 38,000  Level FlightAware ADS-B
Sun 02:41:52 PM 42.9780 -73.4860 276° West 388 447 38,000  Level FlightAware ADS-B
Sun 02:42:37 PM 42.9870 -73.5970 276° West 388 447 38,000  Level FlightAware ADS-B
Sun 02:43:17 PM 42.9930 -73.6800 276° West 388 447 38,000  Level FlightAware ADS-B
Sun 02:43:57 PM 42.9990 -73.7630 276° West 388 447 38,000  Level FlightAware ADS-B
Sun 02:44:42 PM 43.0110 -73.9090 276° West 387 445 38,000  Level FlightAware ADS-B
Sun 02:45:27 PM 43.0180 -74.0160 275° West 386 444 38,000  Level FlightAware ADS-B
Sun 02:46:07 PM 43.0260 -74.1140 276° West 386 444 38,000  Level FlightAware ADS-B
Sun 02:46:52 PM 43.0340 -74.2240 276° West 387 445 38,000  Level FlightAware ADS-B
Sun 02:47:37 PM 43.0410 -74.3240 276° West 387 445 38,000  Level FlightAware ADS-B
Sun 02:48:05 PM 43.0422 -74.3861 276° West 391 450 38,000  Level Boston Center
Sun 02:49:05 PM 43.0544 -74.5314 277° West 391 450 38,000  Level Boston Center
Sun 02:50:05 PM 43.0661 -74.6769 276° West 391 450 38,000 -50 Level Boston Center
Sun 02:51:05 PM 43.0736 -74.8250 274° West 391 450 37,900 -50 Descending Boston Center
Sun 02:52:05 PM 43.0850 -74.9731 276° West 391 450 37,900  Level Boston Center
Sun 02:53:05 PM 43.0922 -75.1186 274° West 391 450 37,900 50 Level Boston Center
Sun 02:54:05 PM 43.1011 -75.2667 275° West 391 450 38,000  Climbing Boston Center
Sun 02:55:05 PM 43.1139 -75.4181 277° West 391 450 37,900 -50 Descending Boston Center
Sun 02:56:05 PM 43.1247 -75.5608 276° West 391 450 37,900 50 Level Boston Center
Sun 02:57:05 PM 43.1331 -75.7094 274° West 391 450 38,000  Climbing Boston Center
Sun 02:58:05 PM 43.1392 -75.8578 273° West 391 450 37,900  Descending Boston Center
Sun 03:00:02 PM 43.1500 -76.1167 273° West 390 449 38,000  Climbing Toronto Center
Sun 03:00:21 PM 43.1583 -76.1914 279° West 397 457 37,900  Descending Cleveland Center
Sun 03:01:21 PM 43.1619 -76.3392 272° West 397 457 38,000 50 Climbing Cleveland Center
Sun 03:02:21 PM 43.1611 -76.4928 270° West 402 463 38,000  Level Cleveland Center
Sun 03:03:21 PM 43.1581 -76.6439 268° West 402 463 38,000  Level Cleveland Center
Sun 03:04:21 PM 43.1589 -76.7892 271° West 402 463 38,000  Level Cleveland Center
Sun 03:05:21 PM 43.1572 -76.9400 269° West 402 463 38,000  Level Cleveland Center
Sun 03:06:21 PM 43.1578 -77.0911 270° West 402 463 38,000  Level Cleveland Center
Sun 03:07:21 PM 43.1561 -77.2419 269° West 402 463 38,000  Level Cleveland Center
Sun 03:08:21 PM 43.1561 -77.3900 270° West 402 463 38,000  Level Cleveland Center
Sun 03:09:21 PM 43.1539 -77.5408 269° West 402 463 38,000  Level Cleveland Center
Sun 03:10:21 PM 43.1536 -77.6889 270° West 402 463 38,000  Level Cleveland Center
Sun 03:15:42 PM 43.1380 -78.4970 270° West 398 458 38,000  Level FlightAware ADS-B
Sun 03:16:02 PM 43.1333 -78.5333 270° West 400 460 38,000  Level Toronto Center
Sun 03:16:21 PM 43.1372 -78.6058 274° West 403 464 38,000  Level Cleveland Center
Sun 03:17:21 PM 43.1314 -78.7569 267° West 403 464 38,000  Level Cleveland Center
Sun 03:19:02 PM 43.1167 -79.0000 265° West 390 449 38,000  Level Toronto Center
Sun 03:20:02 PM 43.1167 -79.1333 270° West 390 449 38,000  Level Toronto Center
Sun 03:21:02 PM 43.1000 -79.2667 260° West 390 449 38,000  Level Toronto Center
Sun 03:22:02 PM 43.1000 -79.4333 270° West 390 449 38,000  Level Toronto Center
Sun 03:23:02 PM 43.1000 -79.5833 270° West 390 449 38,000  Level Toronto Center
Sun 03:24:02 PM 43.0833 -79.7167 260° West 390 449 38,000  Level Toronto Center
Sun 03:25:02 PM 43.0833 -79.8833 270° West 400 460 38,000  Level Toronto Center
Sun 03:26:02 PM 43.0833 -80.0167 270° West 390 449 38,000  Level Toronto Center
Sun 03:27:02 PM 43.0667 -80.1833 262° West 400 460 38,000  Level Toronto Center
Sun 03:28:02 PM 43.0667 -80.3333 270° West 400 460 38,000  Level Toronto Center
Sun 03:29:02 PM 43.0667 -80.4833 270° West 400 460 38,000  Level Toronto Center
Sun 03:30:02 PM 43.0500 -80.6333 261° West 400 460 38,000  Level Toronto Center
Sun 03:31:02 PM 43.0500 -80.8000 270° West 400 460 38,000  Level Toronto Center
Sun 03:32:02 PM 43.0333 -80.9333 260° West 400 460 38,000  Level Toronto Center
Sun 03:37:47 PM 43.0250 -81.8520 260° West 416 479 38,000  Level FlightAware ADS-B
Sun 03:38:27 PM 43.0220 -81.9580 268° West 416 479 38,000  Level FlightAware ADS-B
Sun 03:39:12 PM 43.0200 -82.0730 269° West 418 481 38,000  Level FlightAware ADS-B
Sun 03:39:52 PM 43.0170 -82.1780 268° West 422 486 38,000  Level FlightAware ADS-B
Sun 03:40:37 PM 43.0140 -82.3000 268° West 432 497 38,000  Level FlightAware ADS-B
Sun 03:41:12 PM 43.0110 -82.3950 268° West 435 501 38,000  Level FlightAware ADS-B
Sun 03:41:52 PM 43.0090 -82.4900 268° West 438 504 38,000  Level FlightAware ADS-B
Sun 03:42:37 PM 43.0050 -82.6130 267° West 440 506 38,000 -282 Level FlightAware ADS-B
Sun 03:43:17 PM 43.0020 -82.7220 268° West 442 509 37,600 -750 Descending FlightAware ADS-B
Sun 03:43:57 PM 42.9990 -82.8370 268° West 443 510 37,000 -933 Descending FlightAware ADS-B
Sun 03:44:47 PM 42.9940 -82.9690 267° West 444 511 36,200 -571 Descending FlightAware ADS-B
Sun 03:45:42 PM 42.9890 -83.1450 268° West 443 510 36,000 -120 Descending FlightAware ADS-B
Sun 03:46:27 PM 42.9850 -83.2400 267° West 445 512 36,000  Level FlightAware ADS-B
Sun 03:47:12 PM 42.9800 -83.3930 267° West 447 514 36,000  Level FlightAware ADS-B
Sun 03:47:42 PM 42.9770 -83.4840 267° West 448 516 36,000  Level FlightAware ADS-B
Sun 03:48:17 PM 42.9730 -83.5820 267° West 449 517 36,000  Level FlightAware ADS-B
Sun 03:48:57 PM 42.9690 -83.6980 267° West 451 519 36,000  Level FlightAware ADS-B
Sun 03:49:47 PM 42.9580 -83.8400 264° West 453 521 36,000  Level FlightAware ADS-B
Sun 03:50:27 PM 42.9470 -83.9510 262° West 453 521 36,000  Level FlightAware ADS-B
Sun 03:51:07 PM 42.9360 -84.0660 263° West 453 521 36,000  Level FlightAware ADS-B
Sun 03:51:52 PM 42.9240 -84.1920 263° West 457 526 36,000 -776 Level FlightAware ADS-B
Sun 03:52:32 PM 42.9130 -84.3040 262° West 453 521 34,900 -2,400 Descending FlightAware ADS-B
Sun 03:53:12 PM 42.9010 -84.4160 262° West 459 528 32,800 -2,925 Descending FlightAware ADS-B
Sun 03:53:52 PM 42.8900 -84.5300 263° West 443 510 31,000 -1,976 Descending FlightAware ADS-B
Sun 03:54:37 PM 42.8760 -84.6570 261° West 438 504 30,000 -667 Descending FlightAware ADS-B
Sun 03:55:22 PM 42.8640 -84.7780 262° West 442 509 30,000  Level FlightAware ADS-B
Sun 03:56:02 PM 42.8530 -84.8890 262° West 445 512 30,000  Level FlightAware ADS-B
Sun 03:56:47 PM 42.8400 -85.0110 262° West 446 513 30,000  Level FlightAware ADS-B
Sun 03:57:27 PM 42.8270 -85.1290 261° West 450 518 30,000 -300 Level FlightAware ADS-B
Sun 03:58:07 PM 42.8150 -85.2390 262° West 449 517 29,600 -776 Descending FlightAware ADS-B
Sun 03:58:52 PM 42.8020 -85.3620 262° West 452 520 28,900 -988 Descending FlightAware ADS-B
Sun 03:59:32 PM 42.7890 -85.4750 261° West 448 516 28,200 -1,125 Descending FlightAware ADS-B
Sun 04:00:12 PM 42.7720 -85.5820 258° West 441 507 27,400 -1,129 Descending FlightAware ADS-B
Sun 04:00:57 PM 42.7500 -85.7050 256° West 433 498 26,600 -1,059 Descending FlightAware ADS-B
Sun 04:01:37 PM 42.7310 -85.8100 256° West 431 496 25,900 -988 Descending FlightAware ADS-B
Sun 04:02:22 PM 42.7100 -85.9250 256° West 425 489 25,200 -1,482 Descending FlightAware ADS-B
Sun 04:03:02 PM 42.6910 -86.0270 256° West 411 473 23,800 -2,175 Descending FlightAware ADS-B
Sun 04:03:42 PM 42.6730 -86.1250 256° West 399 459 22,300 -2,259 Descending FlightAware ADS-B
Sun 04:04:27 PM 42.6530 -86.2340 256° West 388 447 20,600 -1,971 Descending FlightAware ADS-B
Sun 04:04:52 PM 42.6420 -86.2910 255° West 382 440 20,000 -514 Descending FlightAware ADS-B
Sun 04:05:37 PM 42.6220 -86.3980 256° West 363 418 20,000 -918 Level FlightAware ADS-B
Sun 04:06:17 PM 42.6050 -86.4870 255° West 370 426 18,700 -1,976 Descending FlightAware ADS-B
Sun 04:07:02 PM 42.5870 -86.5840 256° West 372 428 17,200 -2,047 Descending FlightAware ADS-B
Sun 04:07:42 PM 42.5710 -86.6700 256° West 371 427 15,800 -2,188 Descending FlightAware ADS-B
Sun 04:08:27 PM 42.5470 -86.7740 253° West 365 420 14,100 -2,118 Descending FlightAware ADS-B
Sun 04:09:07 PM 42.5240 -86.8580 250° West 360 414 12,800 -2,118 Descending FlightAware ADS-B
Sun 04:09:52 PM 42.4980 -86.9540 250° West 353 406 11,100 -1,976 Descending FlightAware ADS-B
Sun 04:10:32 PM 42.4770 -87.0340 250° West 337 388 10,000 -750 Descending FlightAware ADS-B
Sun 04:11:12 PM 42.4560 -87.1100 249° West 286 329 10,100 -429 Climbing FlightAware ADS-B
Sun 04:11:42 PM 42.4430 -87.1570 249° West 274 315 9,500 -1,091 Descending FlightAware ADS-B
Sun 04:12:07 PM 42.4320 -87.1970 250° West 269 310 9,100 -436 Descending FlightAware ADS-B
Sun 04:12:37 PM 42.4190 -87.2430 249° West 267 307 9,100 -300 Level FlightAware ADS-B
Sun 04:13:07 PM 42.4040 -87.2860 245° Southwest 265 305 8,800 -1,309 Descending FlightAware ADS-B
Sun 04:13:32 PM 42.3910 -87.3290 248° West 276 318 7,900 -1,680 Descending FlightAware ADS-B
Sun 04:13:57 PM 42.3790 -87.3670 247° West 274 315 7,400 -1,200 Descending FlightAware ADS-B
Sun 04:14:12 PM 42.3720 -87.3890 247° West 271 312 7,100 -400 Descending FlightAware ADS-B
Sun 04:14:42 PM 42.3570 -87.4380 248° West 266 306 7,100  Level FlightAware ADS-B
Sun 04:15:12 PM 42.3450 -87.4800 249° West 238 274 7,100  Level FlightAware ADS-B
Sun 04:15:37 PM 42.3330 -87.5130 244° Southwest 230 265 7,100  Level FlightAware ADS-B
Sun 04:16:07 PM 42.3110 -87.5450 227° Southwest 231 266 7,100  Level FlightAware ADS-B
Sun 04:16:32 PM 42.2930 -87.5700 226° Southwest 229 264 7,100  Level FlightAware ADS-B
Sun 04:17:02 PM 42.2690 -87.6000 223° Southwest 221 254 7,100  Level FlightAware ADS-B
Sun 04:17:32 PM 42.2450 -87.6230 215° Southwest 199 229 7,100 -436 Level FlightAware ADS-B
Sun 04:17:57 PM 42.2270 -87.6410 217° Southwest 200 230 6,700 -1,200 Descending FlightAware ADS-B
Sun 04:18:27 PM 42.2050 -87.6640 218° Southwest 200 230 6,000 -1,309 Descending FlightAware ADS-B
Sun 04:18:52 PM 42.1890 -87.6840 223° Southwest 192 221 5,500 -982 Descending FlightAware ADS-B
Sun 04:19:22 PM 42.1700 -87.7060 221° Southwest 168 193 5,100 -1,000 Descending FlightAware ADS-B
Sun 04:19:52 PM 42.1510 -87.7270 219° Southwest 162 186 4,500 -982 Descending FlightAware ADS-B
Sun 04:20:17 PM 42.1380 -87.7410 219° Southwest 159 183 4,200 -750 Descending FlightAware ADS-B
Sun 04:20:32 PM 42.1290 -87.7510 219° Southwest 157 181 4,000 -933 Descending FlightAware ADS-B
Sun 04:21:02 PM 42.1120 -87.7700 220° Southwest 161 185 3,500 -873 Descending FlightAware ADS-B
Sun 04:21:27 PM 42.0970 -87.7860 218° Southwest 162 186 3,200 -750 Descending FlightAware ADS-B
Sun 04:21:42 PM 42.0880 -87.7960 220° Southwest 165 190 3,000 -900 Descending FlightAware ADS-B
Sun 04:22:07 PM 42.0740 -87.8120 220° Southwest 165 190 2,600 -873 Descending FlightAware ADS-B
Sun 04:22:37 PM 42.0560 -87.8320 220° Southwest 170 196 2,200 -840 Descending FlightAware ADS-B
Sun 04:22:57 PM 42.0450 -87.8440 219° Southwest 163 188 1,900 -857 Descending FlightAware ADS-B
Sun 04:23:12 PM 42.0360 -87.8530 217° Southwest 153 176 1,700 -800 Descending FlightAware ADS-B
Sun 04:23:42 PM 42.0200 -87.8720 221° Southwest 145 167 1,300 -873 Descending FlightAware ADS-B
Sun 04:24:07 PM 42.0070 -87.8860 219° Southwest 139 160 900 -960 Descending FlightAware ADS-B

Login

Don't have an account? Register now (free) for customized features, flight alerts, and more!